createdAt,value
2017-09-16T00:00:40.014Z,1028.31
2017-09-16T00:01:40.004Z,1028.35
2017-09-16T00:02:39.994Z,1028.32
2017-09-16T00:03:39.986Z,1028.33
2017-09-16T00:04:39.976Z,1028.37
2017-09-16T00:05:39.971Z,1028.37
2017-09-16T00:06:39.958Z,1028.32
2017-09-16T00:07:39.949Z,1028.32
2017-09-16T00:08:39.941Z,1028.33
2017-09-16T00:09:39.930Z,1028.28
2017-09-16T00:10:39.921Z,1028.33
2017-09-16T00:11:39.913Z,1028.32
2017-09-16T00:12:39.914Z,1028.3
2017-09-16T00:13:39.893Z,1028.34
2017-09-16T00:14:39.885Z,1028.34
2017-09-16T00:15:39.876Z,1028.33
2017-09-16T00:16:39.867Z,1028.31
2017-09-16T00:17:39.860Z,1028.32
2017-09-16T00:18:39.850Z,1028.3
2017-09-16T00:19:39.840Z,1028.35
2017-09-16T00:20:39.831Z,1028.28
2017-09-16T00:21:39.821Z,1028.29
2017-09-16T00:22:39.812Z,1028.31
2017-09-16T00:23:39.805Z,1028.24
2017-09-16T00:24:39.794Z,1028.25
2017-09-16T00:25:39.785Z,1028.24
2017-09-16T00:26:39.774Z,1028.23
2017-09-16T00:27:39.767Z,1028.27
2017-09-16T00:28:39.759Z,1028.23
2017-09-16T00:29:39.748Z,1028.23
2017-09-16T00:30:39.739Z,1028.21
2017-09-16T00:31:39.731Z,1028.25
2017-09-16T00:32:39.720Z,1028.25
2017-09-16T00:33:39.712Z,1028.25
2017-09-16T00:34:39.703Z,1028.25
2017-09-16T00:35:39.693Z,1028.22
2017-09-16T00:36:39.684Z,1028.26
2017-09-16T00:37:39.675Z,1028.26
2017-09-16T00:38:39.666Z,1028.27
2017-09-16T00:39:39.656Z,1028.25
2017-09-16T00:40:39.646Z,1028.2
2017-09-16T00:41:39.637Z,1028.26
2017-09-16T00:42:39.631Z,1028.23
2017-09-16T00:43:39.619Z,1028.22
2017-09-16T00:44:39.610Z,1028.24
2017-09-16T00:45:39.601Z,1028.3
2017-09-16T00:46:39.592Z,1028.27
2017-09-16T00:47:39.582Z,1028.28
2017-09-16T00:48:39.573Z,1028.26
2017-09-16T00:49:39.564Z,1028.27
2017-09-16T00:50:39.556Z,1028.27
2017-09-16T00:51:39.546Z,1028.31
2017-09-16T00:52:39.538Z,1028.31
2017-09-16T00:53:39.527Z,1028.33
2017-09-16T00:54:39.519Z,1028.34
2017-09-16T00:55:39.508Z,1028.35
2017-09-16T00:56:39.500Z,1028.33
2017-09-16T00:57:39.491Z,1028.32
2017-09-16T00:58:39.482Z,1028.36
2017-09-16T00:59:39.472Z,1028.35
2017-09-16T01:00:39.462Z,1028.32
2017-09-16T01:01:39.453Z,1028.32
2017-09-16T01:02:39.444Z,1028.33
2017-09-16T01:03:39.435Z,1028.33
2017-09-16T01:04:39.424Z,1028.32
2017-09-16T01:05:39.416Z,1028.3
2017-09-16T01:06:39.407Z,1028.33
2017-09-16T01:07:39.402Z,1028.32
2017-09-16T01:08:39.389Z,1028.32
2017-09-16T01:09:39.379Z,1028.3
2017-09-16T01:10:39.368Z,1028.36
2017-09-16T01:11:39.360Z,1028.28
2017-09-16T01:12:39.350Z,1028.32
2017-09-16T01:13:39.342Z,1028.27
2017-09-16T01:14:39.332Z,1028.28
2017-09-16T01:15:39.322Z,1028.27
2017-09-16T01:16:39.311Z,1028.3
2017-09-16T01:17:39.302Z,1028.34
2017-09-16T01:18:39.294Z,1028.31
2017-09-16T01:19:39.288Z,1028.32
2017-09-16T01:20:39.274Z,1028.33
2017-09-16T01:21:39.266Z,1028.27
2017-09-16T01:22:39.257Z,1028.29
2017-09-16T01:23:39.246Z,1028.3
2017-09-16T01:24:39.236Z,1028.3
2017-09-16T17:28:56.106Z,1027.64
2017-09-16T17:29:56.100Z,1027.71
2017-09-16T17:30:56.095Z,1027.74
2017-09-16T17:31:56.088Z,1027.79
2017-09-16T17:32:56.085Z,1027.86
2017-09-16T17:33:56.079Z,1027.9
2017-09-16T17:34:56.072Z,1027.92
2017-09-16T17:35:56.069Z,1028
2017-09-16T17:36:56.062Z,1028.03
2017-09-16T17:37:56.057Z,1028.08
2017-09-16T17:38:56.051Z,1028.06
2017-09-16T17:39:56.045Z,1028.14
2017-09-16T17:40:56.040Z,1028.16
2017-09-16T17:41:56.033Z,1028.22
2017-09-16T17:42:56.028Z,1028.23
2017-09-16T17:43:56.022Z,1028.26
2017-09-16T17:44:56.015Z,1028.28
2017-09-16T17:45:56.009Z,1028.33
2017-09-16T17:46:56.006Z,1028.4
2017-09-16T17:47:55.998Z,1028.47
2017-09-16T17:48:55.994Z,1028.5
2017-09-16T17:49:55.985Z,1028.54
2017-09-16T17:50:55.980Z,1028.52
2017-09-16T17:51:55.976Z,1028.57
2017-09-16T17:52:55.970Z,1028.62
2017-09-16T17:53:55.962Z,1028.67
2017-09-16T17:54:55.956Z,1028.65
2017-09-16T17:55:55.968Z,1028.68
2017-09-16T17:56:55.943Z,1028.71
2017-09-16T17:57:55.936Z,1028.74
2017-09-16T17:58:55.931Z,1028.76
2017-09-16T17:59:55.925Z,1028.79
2017-09-16T18:00:55.917Z,1028.86
2017-09-16T18:01:55.916Z,1028.85
2017-09-16T18:02:55.910Z,1028.87
2017-09-16T18:03:55.899Z,1028.89
2017-09-16T18:04:55.892Z,1028.91
2017-09-16T18:05:55.887Z,1028.94
2017-09-16T18:06:55.880Z,1028.95
2017-09-16T18:07:55.873Z,1028.99
2017-09-16T18:08:55.866Z,1029.01
2017-09-16T18:09:55.860Z,1029.04
2017-09-16T18:10:55.854Z,1029.03
2017-09-16T18:11:55.845Z,1029.02
2017-09-16T18:12:55.839Z,1029.02
2017-09-16T18:13:55.834Z,1029.08
2017-09-16T18:14:55.826Z,1029.1
2017-09-16T18:15:55.820Z,1029.13
2017-09-16T18:16:55.813Z,1029.14
2017-09-16T18:17:55.806Z,1029.12
2017-09-16T18:18:55.799Z,1029.18
2017-09-16T18:19:55.794Z,1029.18
2017-09-16T18:20:55.787Z,1029.19
2017-09-16T18:21:55.778Z,1029.21
2017-09-16T18:22:55.771Z,1029.24
2017-09-16T18:23:55.765Z,1029.26
2017-09-16T18:24:55.757Z,1029.24
2017-09-16T18:25:55.750Z,1029.32
2017-09-16T18:26:55.744Z,1029.29
2017-09-16T18:27:55.737Z,1029.32
2017-09-16T18:28:55.731Z,1029.33
2017-09-16T18:29:55.742Z,1029.36
2017-09-16T18:30:55.716Z,1029.33
2017-09-16T18:31:55.712Z,1029.37
2017-09-16T18:32:55.702Z,1029.4
2017-09-16T18:33:55.695Z,1029.38
2017-09-16T18:34:55.688Z,1029.36
2017-09-16T18:35:55.682Z,1029.36
2017-09-16T18:36:55.673Z,1029.35
2017-09-16T18:37:55.665Z,1029.36
2017-09-16T18:38:55.664Z,1029.37
2017-09-16T18:39:55.652Z,1029.36
2017-09-16T18:40:55.645Z,1029.33
2017-09-16T18:41:55.636Z,1029.36
2017-09-16T18:42:55.631Z,1029.38
2017-09-16T18:43:55.623Z,1029.38
2017-09-16T18:44:55.615Z,1029.36
2017-09-16T18:45:55.608Z,1029.36
2017-09-16T18:46:55.600Z,1029.35
2017-09-16T18:47:55.592Z,1029.33
2017-09-16T18:48:55.586Z,1029.35
2017-09-16T18:49:55.579Z,1029.33
2017-09-16T18:50:55.572Z,1029.37
2017-09-16T18:51:55.564Z,1029.36
2017-09-16T18:52:55.557Z,1029.34
2017-09-16T18:53:55.549Z,1029.35
2017-09-16T18:54:55.543Z,1029.37
2017-09-16T18:55:55.536Z,1029.34
2017-09-16T18:56:55.529Z,1029.36
2017-09-16T18:57:55.520Z,1029.32
2017-09-16T18:58:55.513Z,1029.35
2017-09-16T18:59:55.505Z,1029.37
2017-09-16T19:00:55.500Z,1029.39
2017-09-16T19:01:55.492Z,1029.38
2017-09-16T19:02:55.485Z,1029.38
2017-09-16T19:03:55.476Z,1029.41
2017-09-16T19:04:55.469Z,1029.4
2017-09-16T19:05:55.460Z,1029.43
2017-09-16T19:06:55.454Z,1029.41
2017-09-16T19:07:55.446Z,1029.42
2017-09-16T19:08:55.438Z,1029.44
2017-09-16T19:09:55.430Z,1029.42
2017-09-16T19:10:55.424Z,1029.43
2017-09-16T19:11:55.417Z,1029.38
2017-09-16T19:12:55.410Z,1029.38
2017-09-16T19:13:55.404Z,1029.4
2017-09-16T19:14:55.393Z,1029.36
2017-09-16T19:15:55.387Z,1029.34
2017-09-16T19:16:55.378Z,1029.36
2017-09-16T19:17:55.371Z,1029.35
2017-09-16T19:18:55.363Z,1029.36
2017-09-16T19:19:55.357Z,1029.34
2017-09-16T19:20:55.350Z,1029.32
2017-09-16T19:21:55.342Z,1029.29
2017-09-16T19:22:55.334Z,1029.35
2017-09-16T19:23:55.327Z,1029.32
2017-09-16T19:24:55.319Z,1029.33
2017-09-16T19:25:55.310Z,1029.33
2017-09-16T19:26:55.303Z,1029.33
2017-09-16T19:27:55.297Z,1029.29
2017-09-16T19:28:55.288Z,1029.36
2017-09-16T19:29:55.282Z,1029.38
2017-09-16T19:30:55.274Z,1029.38
2017-09-16T19:31:55.268Z,1029.39
2017-09-16T19:32:55.259Z,1029.4
2017-09-16T19:33:55.251Z,1029.44
2017-09-16T19:34:55.245Z,1029.42
2017-09-16T19:35:55.236Z,1029.43
2017-09-16T19:36:55.230Z,1029.41
2017-09-16T19:37:55.221Z,1029.41
2017-09-16T19:38:55.214Z,1029.43
2017-09-16T19:39:55.206Z,1029.41
2017-09-16T19:40:55.198Z,1029.37
2017-09-16T19:41:55.192Z,1029.36
2017-09-16T19:42:55.185Z,1029.35
2017-09-16T19:43:55.175Z,1029.36
2017-09-16T19:44:55.170Z,1029.31
2017-09-16T19:45:55.162Z,1029.33
2017-09-16T19:46:55.154Z,1029.32
2017-09-16T19:47:55.148Z,1029.29
2017-09-16T19:48:55.140Z,1029.28
2017-09-16T19:49:55.131Z,1029.27
2017-09-16T19:50:55.125Z,1029.24
2017-09-16T19:51:55.116Z,1029.22
2017-09-16T19:52:55.109Z,1029.22
2017-09-16T19:53:55.102Z,1029.2
2017-09-16T19:54:55.094Z,1029.21
2017-09-16T19:55:55.087Z,1029.19
2017-09-16T19:56:55.080Z,1029.17
2017-09-16T19:57:55.073Z,1029.13
2017-09-16T19:58:55.065Z,1029.13
2017-09-16T19:59:55.057Z,1029.11
2017-09-16T20:00:55.049Z,1029.11
2017-09-16T20:01:55.042Z,1029.06
2017-09-16T20:02:55.035Z,1029.06
2017-09-16T20:03:55.030Z,1029.07
2017-09-16T20:04:55.019Z,1029.03
2017-09-16T20:05:55.012Z,1029.01
2017-09-16T20:06:55.007Z,1029
2017-09-16T20:07:54.998Z,1028.98
2017-09-16T20:08:54.992Z,1029
2017-09-16T20:09:54.984Z,1028.98
2017-09-16T20:10:54.978Z,1028.94
2017-09-16T20:11:54.970Z,1028.93
2017-09-16T20:12:54.962Z,1028.94
2017-09-16T20:13:54.958Z,1028.89
2017-09-16T20:14:54.952Z,1028.89
2017-09-16T20:15:54.943Z,1028.9
2017-09-16T20:16:54.935Z,1028.92
2017-09-16T20:17:54.928Z,1028.9
2017-09-16T20:18:54.920Z,1028.92
2017-09-16T20:19:54.912Z,1028.95
2017-09-16T20:20:54.906Z,1028.93
2017-09-16T20:21:54.900Z,1028.93
2017-09-16T20:22:54.893Z,1028.94
2017-09-16T20:23:54.884Z,1028.96
2017-09-16T20:24:54.878Z,1028.91
2017-09-16T20:25:54.871Z,1028.9
2017-09-16T20:26:54.864Z,1028.94
2017-09-16T20:27:54.856Z,1028.93
2017-09-16T20:28:54.849Z,1028.93
2017-09-16T20:29:54.841Z,1028.93
2017-09-16T20:30:54.835Z,1028.92
2017-09-16T20:31:54.829Z,1028.88
2017-09-16T20:32:54.821Z,1028.89
2017-09-16T20:33:54.813Z,1028.9
2017-09-16T20:34:54.807Z,1028.91
2017-09-16T20:35:54.800Z,1028.91
2017-09-16T20:36:54.794Z,1028.92
2017-09-16T20:37:54.787Z,1028.91
2017-09-16T20:38:54.781Z,1028.91
2017-09-16T20:39:54.773Z,1028.88
2017-09-16T20:40:54.767Z,1028.87
2017-09-16T20:41:54.759Z,1028.88
2017-09-16T20:42:54.753Z,1028.86
2017-09-16T20:43:54.748Z,1028.88
2017-09-16T20:44:54.740Z,1028.9
2017-09-16T20:45:54.732Z,1028.87
2017-09-16T20:46:54.724Z,1028.92
2017-09-16T20:47:54.720Z,1028.89
2017-09-16T20:48:54.711Z,1028.86
2017-09-16T20:49:54.704Z,1028.88
2017-09-16T20:50:54.696Z,1028.89
2017-09-16T20:51:54.690Z,1028.85
2017-09-16T20:52:54.684Z,1028.85
2017-09-16T20:53:54.677Z,1028.87
2017-09-16T20:54:54.670Z,1028.82
2017-09-16T20:55:54.663Z,1028.83
2017-09-16T20:56:54.656Z,1028.81
2017-09-16T20:57:54.650Z,1028.81
2017-09-16T20:58:54.642Z,1028.76
2017-09-16T20:59:54.640Z,1028.76
2017-09-16T21:00:54.628Z,1028.79
2017-09-16T21:01:54.621Z,1028.75
2017-09-16T21:02:54.615Z,1028.75
2017-09-16T21:03:54.608Z,1028.75
2017-09-16T21:04:54.602Z,1028.75
2017-09-16T21:05:54.596Z,1028.7
2017-09-16T21:06:54.588Z,1028.69
2017-09-16T21:07:54.581Z,1028.75
2017-09-16T21:08:54.574Z,1028.71
2017-09-16T21:09:54.568Z,1028.7
2017-09-16T21:10:54.566Z,1028.77
2017-09-16T21:11:54.555Z,1028.78
2017-09-16T21:12:54.549Z,1028.73
2017-09-16T21:13:54.541Z,1028.74
2017-09-16T21:14:54.533Z,1028.79
2017-09-16T21:15:54.528Z,1028.79
2017-09-16T21:16:54.519Z,1028.77
2017-09-16T21:17:54.513Z,1028.86
2017-09-16T21:18:54.507Z,1028.84
2017-09-16T21:19:54.500Z,1028.9
2017-09-16T21:20:54.493Z,1028.92
2017-09-16T21:21:54.485Z,1028.91
2017-09-16T21:22:54.479Z,1028.93
2017-09-16T21:23:54.474Z,1028.95
2017-09-16T21:24:54.466Z,1029
2017-09-16T21:25:54.459Z,1029.03
2017-09-16T21:26:54.452Z,1029.04
2017-09-16T21:27:54.445Z,1029.1
2017-09-16T21:28:54.438Z,1029.14
2017-09-16T21:29:54.432Z,1029.15
2017-09-16T21:30:54.425Z,1029.19
2017-09-16T21:31:54.417Z,1029.2
2017-09-16T21:32:54.411Z,1029.25
2017-09-16T21:33:54.403Z,1029.25
2017-09-16T21:34:54.397Z,1029.31
2017-09-16T21:35:54.389Z,1029.33
2017-09-16T21:36:54.382Z,1029.35
2017-09-16T21:37:54.375Z,1029.42
2017-09-16T21:38:54.369Z,1029.46
2017-09-16T21:39:54.361Z,1029.5
2017-09-16T21:40:54.355Z,1029.51
2017-09-16T21:41:54.348Z,1029.52
2017-09-16T21:42:54.341Z,1029.54
2017-09-16T21:43:54.332Z,1029.6
2017-09-16T21:44:54.327Z,1029.59
2017-09-16T21:45:54.318Z,1029.64
2017-09-16T21:46:54.311Z,1029.63
2017-09-16T21:47:54.304Z,1029.64
2017-09-16T21:48:54.297Z,1029.61
2017-09-16T21:49:54.290Z,1029.6
2017-09-16T21:50:54.285Z,1029.6
2017-09-16T21:51:54.275Z,1029.58
2017-09-16T21:52:54.268Z,1029.65
2017-09-16T21:53:54.260Z,1029.64
2017-09-16T21:54:54.254Z,1029.67
2017-09-16T21:55:54.244Z,1029.68
2017-09-16T21:56:54.237Z,1029.72
2017-09-16T21:57:54.231Z,1029.73
2017-09-16T21:58:54.223Z,1029.78
2017-09-16T21:59:54.214Z,1029.78
2017-09-16T22:00:54.208Z,1029.77
2017-09-16T22:01:54.200Z,1029.76
2017-09-16T22:02:54.192Z,1029.81
2017-09-16T22:03:54.185Z,1029.8
2017-09-16T22:04:54.179Z,1029.82
2017-09-16T22:05:54.170Z,1029.83
2017-09-16T22:06:54.161Z,1029.83
2017-09-16T22:07:54.154Z,1029.85
2017-09-16T22:08:54.146Z,1029.88
2017-09-16T22:09:54.139Z,1029.93
2017-09-16T22:10:54.132Z,1029.96
2017-09-16T22:11:54.123Z,1029.97
2017-09-16T22:12:54.116Z,1030.02
2017-09-16T22:13:54.109Z,1030.02
2017-09-16T22:14:54.101Z,1030.04
2017-09-16T22:15:54.092Z,1030.08
2017-09-16T22:16:54.084Z,1030.11
2017-09-16T22:17:54.077Z,1030.13
2017-09-16T22:18:54.068Z,1030.15
2017-09-16T22:19:54.061Z,1030.16
2017-09-16T22:20:54.052Z,1030.2
2017-09-16T22:21:54.045Z,1030.19
2017-09-16T22:22:54.037Z,1030.19
2017-09-16T22:23:54.029Z,1030.21
2017-09-16T22:24:54.021Z,1030.2
2017-09-16T22:25:54.014Z,1030.2
2017-09-16T22:26:54.006Z,1030.22
2017-09-16T22:27:53.997Z,1030.24
2017-09-16T22:28:53.990Z,1030.26
2017-09-16T22:29:53.983Z,1030.31
2017-09-16T22:30:53.973Z,1030.32
2017-09-16T22:31:53.966Z,1030.35
2017-09-16T22:32:53.959Z,1030.34
2017-09-16T22:33:53.950Z,1030.37
2017-09-16T22:34:53.941Z,1030.4
2017-09-16T22:35:53.933Z,1030.38
2017-09-16T22:36:53.925Z,1030.39
2017-09-16T22:37:53.917Z,1030.43
2017-09-16T22:38:53.910Z,1030.42
2017-09-16T22:39:53.901Z,1030.43
2017-09-16T22:40:53.899Z,1030.41
2017-09-16T22:41:53.886Z,1030.45
2017-09-16T22:42:53.881Z,1030.4
2017-09-16T22:43:53.870Z,1030.43
2017-09-16T22:44:53.860Z,1030.45
2017-09-16T22:45:53.852Z,1030.46
2017-09-16T22:46:53.845Z,1030.44
2017-09-16T22:47:53.838Z,1030.45
2017-09-16T22:48:53.826Z,1030.48
2017-09-16T22:49:53.819Z,1030.48
2017-09-16T22:50:53.810Z,1030.5
2017-09-16T22:51:53.803Z,1030.53
2017-09-16T22:52:53.794Z,1030.55
2017-09-16T22:53:53.786Z,1030.58
2017-09-16T22:54:53.778Z,1030.56
2017-09-16T22:55:53.769Z,1030.58
2017-09-16T22:56:53.761Z,1030.55
2017-09-16T22:57:53.753Z,1030.58
2017-09-16T22:58:53.745Z,1030.59
2017-09-16T22:59:53.736Z,1030.54
2017-09-16T23:00:53.734Z,1030.51
2017-09-16T23:01:53.721Z,1030.51
2017-09-16T23:02:53.712Z,1030.53
2017-09-16T23:03:53.702Z,1030.5
2017-09-16T23:04:53.693Z,1030.55
2017-09-16T23:05:53.687Z,1030.54
2017-09-16T23:06:53.679Z,1030.56
2017-09-16T23:07:53.669Z,1030.53
2017-09-16T23:08:53.660Z,1030.56
2017-09-16T23:09:53.653Z,1030.56
2017-09-16T23:10:53.642Z,1030.6
2017-09-16T23:11:53.635Z,1030.56
2017-09-16T23:12:53.627Z,1030.6
2017-09-16T23:13:53.619Z,1030.62
2017-09-16T23:14:53.612Z,1030.61
2017-09-16T23:15:53.601Z,1030.61
2017-09-16T23:16:53.594Z,1030.59
2017-09-16T23:17:53.585Z,1030.63
2017-09-16T23:18:53.578Z,1030.63
2017-09-16T23:19:53.569Z,1030.61
2017-09-16T23:20:53.560Z,1030.63
2017-09-16T23:21:53.555Z,1030.64
2017-09-16T23:22:53.542Z,1030.65
2017-09-16T23:23:53.535Z,1030.67
2017-09-16T23:24:53.553Z,1030.67
2017-09-16T23:25:53.517Z,1030.69
2017-09-16T23:26:53.508Z,1030.7
2017-09-16T23:27:53.501Z,1030.71
2017-09-16T23:28:53.491Z,1030.75
2017-09-16T23:29:53.482Z,1030.74
2017-09-16T23:30:53.474Z,1030.74
2017-09-16T23:31:53.466Z,1030.76
2017-09-16T23:32:53.457Z,1030.79
2017-09-16T23:33:53.450Z,1030.79
2017-09-16T23:34:53.439Z,1030.82
2017-09-16T23:35:53.431Z,1030.84
2017-09-16T23:36:53.438Z,1030.84
2017-09-16T23:37:53.413Z,1030.81
2017-09-16T23:38:53.405Z,1030.84
2017-09-16T23:39:53.395Z,1030.83
2017-09-16T23:40:53.388Z,1030.81
2017-09-16T23:41:53.378Z,1030.79
2017-09-16T23:42:53.370Z,1030.79
2017-09-16T23:43:53.362Z,1030.77
2017-09-16T23:44:53.353Z,1030.72
2017-09-16T23:45:53.343Z,1030.77
2017-09-16T23:46:53.335Z,1030.74
2017-09-16T23:47:53.326Z,1030.73
2017-09-16T23:48:53.318Z,1030.73
2017-09-16T23:49:53.309Z,1030.73
2017-09-16T23:50:53.298Z,1030.71
2017-09-16T23:51:53.291Z,1030.71
2017-09-16T23:52:53.282Z,1030.69
2017-09-16T23:53:53.273Z,1030.69
2017-09-16T23:54:53.264Z,1030.71
2017-09-16T23:55:53.256Z,1030.68
2017-09-16T23:56:53.247Z,1030.66
2017-09-16T23:57:53.238Z,1030.72
2017-09-16T23:58:53.231Z,1030.7
2017-09-16T23:59:53.223Z,1030.69
